^^
Saratoga-Weather Station Historical Data
Daily Summary for October 25, 2020 Units:  Both    English   Metric
Daily Weekly Monthly Yearly Custom
  High: Low: Average:
Temperature: 57.2 °F /  14 °C 48.7 °F /  9.3 °C 52.7 °F /  11.5 °C
Dew Point: 52.2 °F /  11.2 °C 47.1 °F /  8.4 °C 49.8 °F /  9.9 °C
Humidity: 96% 76% 90%
Wind Speed: 4.9mph /  7.9km/h - 1.2mph /  2km/h
Wind Gust: 10mph /  16.1km/h - -
Wind- - ESE
Pressure: 29.9 in /  1010.8 hPa 29.6 in /  1002.7 hPa -
Precipitation: 0.36 in /  9.1 mm    
Historical Graphs
 
 
Tabular Data for October 25, 2020
Time Temperature Dew Point Pressure Wind Wind Speed Wind Gust Humidity Rainfall Rate (Hourly) solar
00:04 56.8 °F /  13.8 °C 52 °F /  11.1 °C 29.9in /  1010.8hPa North 2.9mph /  4.7km/h 8mph /  12.9km/h 84% 0in /  0.0mm 0 W/m2
00:09 57 °F /  13.9 °C 52.2 °F /  11.2 °C 29.9in /  1010.8hPa NNW 0.9mph /  1.4km/h 2mph /  3.2km/h 84% 0in /  0.0mm 0 W/m2
00:14 57 °F /  13.9 °C 52 °F /  11.1 °C 29.9in /  1010.8hPa NNW 0.9mph /  1.4km/h 3mph /  4.8km/h 83% 0in /  0.0mm 0 W/m2
00:19 57 °F /  13.9 °C 52 °F /  11.1 °C 29.9in /  1010.8hPa ENE 4mph /  6.4km/h 10mph /  16.1km/h 83% 0in /  0.0mm 0 W/m2
00:24 57.2 °F /  14 °C 52.2 °F /  11.2 °C 29.9in /  1010.8hPa North 2.9mph /  4.7km/h 4mph /  6.4km/h 83% 0in /  0.0mm 0 W/m2
00:29 57.2 °F /  14 °C 52.2 °F /  11.2 °C 29.8in /  1010.5hPa NNE 0.9mph /  1.4km/h 10mph /  16.1km/h 83% 0in /  0.0mm 0 W/m2
00:34 57 °F /  13.9 °C 52 °F /  11.1 °C 29.9in /  1010.8hPa North 0.9mph /  1.4km/h 1mph /  1.6km/h 83% 0in /  0.0mm 0 W/m2
00:40 56.8 °F /  13.8 °C 51.4 °F /  10.8 °C 29.9in /  1010.8hPa Calm   4mph /  6.4km/h 82% 0in /  0.0mm 0 W/m2
00:45 56.8 °F /  13.8 °C 51.4 °F /  10.8 °C 29.8in /  1010.5hPa ENE 2mph /  3.2km/h 3mph /  4.8km/h 82% 0in /  0.0mm 0 W/m2
00:50 56.8 °F /  13.8 °C 51.4 °F /  10.8 °C 29.8in /  1010.5hPa North 4.9mph /  7.9km/h 5mph /  8km/h 82% 0in /  0.0mm 0 W/m2
00:55 56.8 °F /  13.8 °C 51.4 °F /  10.8 °C 29.9in /  1010.8hPa WNW 2mph /  3.2km/h 9mph /  14.5km/h 82% 0in /  0.0mm 0 W/m2
01:00 57 °F /  13.9 °C 51.6 °F /  10.9 °C 29.8in /  1010.5hPa NE 4.9mph /  7.9km/h 5mph /  8km/h 82% 0in /  0.0mm 0 W/m2
01:05 56.8 °F /  13.8 °C 51.4 °F /  10.8 °C 29.8in /  1010.2hPa NE 4mph /  6.4km/h 4mph /  6.4km/h 82% 0in /  0.0mm 0 W/m2
01:10 56.8 °F /  13.8 °C 51.4 °F /  10.8 °C 29.8in /  1010.2hPa ENE 0.9mph /  1.4km/h 5mph /  8km/h 82% 0in /  0.0mm 0 W/m2
01:15 56.7 °F /  13.7 °C 51.3 °F /  10.7 °C 29.8in /  1010.2hPa NE 0.9mph /  1.4km/h 2mph /  3.2km/h 82% 0in /  0.0mm 0 W/m2
01:20 56.5 °F /  13.6 °C 51.4 °F /  10.8 °C 29.8in /  1010.2hPa NW 2.9mph /  4.7km/h 3mph /  4.8km/h 83% 0in /  0.0mm 0 W/m2
01:25 56.1 °F /  13.4 °C 51.1 °F /  10.6 °C 29.8in /  1010.2hPa NE 2mph /  3.2km/h 3mph /  4.8km/h 83% 0in /  0.0mm 0 W/m2
01:30 56.1 °F /  13.4 °C 51.1 °F /  10.6 °C 29.8in /  1010.2hPa NE 4.9mph /  7.9km/h 6mph /  9.7km/h 83% 0in /  0.0mm 0 W/m2
01:35 55.9 °F /  13.3 °C 50.9 °F /  10.5 °C 29.8in /  1010.2hPa North 0.9mph /  1.4km/h 3mph /  4.8km/h 83% 0in /  0.0mm 0 W/m2
01:40 55.8 °F /  13.2 °C 50.7 °F /  10.4 °C 29.8in /  1010.2hPa Calm   6mph /  9.7km/h 83% 0in /  0.0mm 0 W/m2
01:45 55.8 °F /  13.2 °C 50.7 °F /  10.4 °C 29.8in /  1009.8hPa Calm   2mph /  3.2km/h 83% 0in /  0.0mm 0 W/m2
01:50 55.6 °F /  13.1 °C 50.9 °F /  10.5 °C 29.8in /  1010.2hPa Calm   2mph /  3.2km/h 84% 0in /  0.0mm 0 W/m2
01:55 55.4 °F /  13 °C 50.7 °F /  10.4 °C 29.8in /  1009.8hPa NE 0.9mph /  1.4km/h 4mph /  6.4km/h 84% 0in /  0.0mm 0 W/m2
02:00 55.2 °F /  12.9 °C 50.5 °F /  10.3 °C 29.8in /  1009.8hPa ENE 2.9mph /  4.7km/h 4mph /  6.4km/h 84% 0in /  0.0mm 0 W/m2
02:05 55 °F /  12.8 °C 50.4 °F /  10.2 °C 29.8in /  1009.8hPa NE 0.9mph /  1.4km/h 2mph /  3.2km/h 84% 0in /  0.0mm 0 W/m2
02:10 54.9 °F /  12.7 °C 50.4 °F /  10.2 °C 29.8in /  1009.8hPa NE 0.9mph /  1.4km/h 4mph /  6.4km/h 85% 0in /  0.0mm 0 W/m2
02:15 54.9 °F /  12.7 °C 50.4 °F /  10.2 °C 29.8in /  1009.8hPa Calm   4mph /  6.4km/h 85% 0in /  0.0mm 0 W/m2
02:20 54.7 °F /  12.6 °C 50.2 °F /  10.1 °C 29.8in /  1009.5hPa NW 0.9mph /  1.4km/h 2mph /  3.2km/h 85% 0in /  0.0mm 0 W/m2
02:25 54.3 °F /  12.4 °C 50.2 °F /  10.1 °C 29.8in /  1009.5hPa Calm   4mph /  6.4km/h 86% 0in /  0.0mm 0 W/m2
02:30 54.1 °F /  12.3 °C 50 °F /  10 °C 29.8in /  1009.5hPa Calm   3mph /  4.8km/h 86% 0in /  0.0mm 0 W/m2
02:35 54 °F /  12.2 °C 49.8 °F /  9.9 °C 29.8in /  1009.5hPa ENE 0.9mph /  1.4km/h 3mph /  4.8km/h 86% 0in /  0.0mm 0 W/m2
02:40 53.8 °F /  12.1 °C 50 °F /  10 °C 29.8in /  1009.5hPa ENE 2mph /  3.2km/h 4mph /  6.4km/h 87% 0in /  0.0mm 0 W/m2
02:45 53.6 °F /  12 °C 49.8 °F /  9.9 °C 29.8in /  1009.1hPa ENE 2mph /  3.2km/h 4mph /  6.4km/h 87% 0in /  0.0mm 0 W/m2
02:50 53.4 °F /  11.9 °C 50 °F /  10 °C 29.8in /  1009.1hPa NE 2mph /  3.2km/h 3mph /  4.8km/h 88% 0in /  0.0mm 0 W/m2
02:55 53.2 °F /  11.8 °C 49.8 °F /  9.9 °C 29.8in /  1009.1hPa Calm   2mph /  3.2km/h 88% 0in /  0.0mm 0 W/m2
02:00 53.2 °F /  11.8 °C 49.8 °F /  9.9 °C 29.8in /  1009.1hPa Calm   3mph /  4.8km/h 88% 0in /  0.0mm 0 W/m2
02:05 53.2 °F /  11.8 °C 50 °F /  10 °C 29.8in /  1009.1hPa Calm   3mph /  4.8km/h 89% 0in /  0.0mm 0 W/m2
02:10 53.1 °F /  11.7 °C 49.8 °F /  9.9 °C 29.8in /  1008.8hPa ENE 2mph /  3.2km/h 4mph /  6.4km/h 89% 0in /  0.0mm 0 W/m2
02:15 53.1 °F /  11.7 °C 49.8 °F /  9.9 °C 29.8in /  1008.8hPa NE 2.9mph /  4.7km/h 4mph /  6.4km/h 89% 0in /  0.0mm 0 W/m2
02:20 53.2 °F /  11.8 °C 50 °F /  10 °C 29.8in /  1008.5hPa ENE 2mph /  3.2km/h 3mph /  4.8km/h 89% 0in /  0.0mm 0 W/m2
02:25 53.1 °F /  11.7 °C 49.6 °F /  9.8 °C 29.8in /  1008.5hPa NE 4mph /  6.4km/h 4mph /  6.4km/h 88% 0in /  0.0mm 0 W/m2
02:30 53.2 °F /  11.8 °C 49.8 °F /  9.9 °C 29.8in /  1008.5hPa East 2.9mph /  4.7km/h 5mph /  8km/h 88% 0in /  0.0mm 0 W/m2
02:35 53.1 °F /  11.7 °C 49.6 °F /  9.8 °C 29.8in /  1008.5hPa ENE 2mph /  3.2km/h 4mph /  6.4km/h 88% 0in /  0.0mm 0 W/m2
02:40 53.1 °F /  11.7 °C 49.6 °F /  9.8 °C 29.8in /  1008.5hPa East 2mph /  3.2km/h 7mph /  11.3km/h 88% 0in /  0.0mm 0 W/m2
02:45 52.9 °F /  11.6 °C 49.5 °F /  9.7 °C 29.8in /  1008.5hPa Calm   4mph /  6.4km/h 88% 0in /  0.0mm 0 W/m2
02:50 52.9 °F /  11.6 °C 49.5 °F /  9.7 °C 29.8in /  1008.5hPa ENE 4mph /  6.4km/h 6mph /  9.7km/h 88% 0in /  0.0mm 0 W/m2
02:56 52.9 °F /  11.6 °C 49.5 °F /  9.7 °C 29.8in /  1008.5hPa ENE 2mph /  3.2km/h 4mph /  6.4km/h 88% 0in /  0.0mm 0 W/m2
03:01 52.7 °F /  11.5 °C 49.3 °F /  9.6 °C 29.8in /  1008.1hPa NE 2.9mph /  4.7km/h 6mph /  9.7km/h 88% 0in /  0.0mm 0 W/m2
03:06 52.5 °F /  11.4 °C 49.1 °F /  9.5 °C 29.8in /  1008.5hPa Calm   1mph /  1.6km/h 88% 0in /  0.0mm 0 W/m2
03:11 52 °F /  11.1 °C 48.6 °F /  9.2 °C 29.8in /  1008.5hPa Calm   3mph /  4.8km/h 88% 0in /  0.0mm 0 W/m2
03:16 51.6 °F /  10.9 °C 48.6 °F /  9.2 °C 29.8in /  1008.1hPa East 2.9mph /  4.7km/h 4mph /  6.4km/h 89% 0in /  0.0mm 0 W/m2
03:21 51.4 °F /  10.8 °C 48.6 °F /  9.2 °C 29.8in /  1008.1hPa NE 0.9mph /  1.4km/h 3mph /  4.8km/h 90% 0in /  0.0mm 0 W/m2
03:26 51.6 °F /  10.9 °C 49.1 °F /  9.5 °C 29.8in /  1007.8hPa East 2.9mph /  4.7km/h 4mph /  6.4km/h 91% 0in /  0.0mm 0 W/m2
03:31 52 °F /  11.1 °C 49.5 °F /  9.7 °C 29.8in /  1007.8hPa ENE 4mph /  6.4km/h 8mph /  12.9km/h 91% 0in /  0.0mm 0 W/m2
03:36 52.3 °F /  11.3 °C 49.5 °F /  9.7 °C 29.8in /  1007.8hPa NE 0.9mph /  1.4km/h 7mph /  11.3km/h 90% 0in /  0.0mm 0 W/m2
03:41 52.5 °F /  11.4 °C 49.5 °F /  9.7 °C 29.8in /  1007.8hPa NE 4.9mph /  7.9km/h 8mph /  12.9km/h 89% 0in /  0.0mm 0 W/m2
03:46 52.5 °F /  11.4 °C 49.5 °F /  9.7 °C 29.8in /  1007.8hPa ENE 2.9mph /  4.7km/h 4mph /  6.4km/h 89% 0in /  0.0mm 0 W/m2
03:51 52.3 °F /  11.3 °C 49.3 °F /  9.6 °C 29.8in /  1007.5hPa East 2mph /  3.2km/h 3mph /  4.8km/h 89% 0in /  0.0mm 0 W/m2
03:56 52.3 °F /  11.3 °C 49.3 °F /  9.6 °C 29.8in /  1007.8hPa ENE 2mph /  3.2km/h 3mph /  4.8km/h 89% 0in /  0.0mm 0 W/m2
04:01 52.2 °F /  11.2 °C 49.1 °F /  9.5 °C 29.8in /  1007.5hPa ENE 2mph /  3.2km/h 2mph /  3.2km/h 89% 0in /  0.0mm 0 W/m2
04:06 52 °F /  11.1 °C 48.9 °F /  9.4 °C 29.8in /  1007.5hPa NE 0.9mph /  1.4km/h 1mph /  1.6km/h 89% 0in /  0.0mm 0 W/m2
04:11 51.6 °F /  10.9 °C 48.7 °F /  9.3 °C 29.8in /  1007.5hPa East 0.9mph /  1.4km/h 4mph /  6.4km/h 90% 0in /  0.0mm 0 W/m2
04:16 51.4 °F /  10.8 °C 48.6 °F /  9.2 °C 29.8in /  1007.5hPa ENE 4mph /  6.4km/h 6mph /  9.7km/h 90% 0in /  0.0mm 0 W/m2
04:21 51.6 °F /  10.9 °C 48.7 °F /  9.3 °C 29.7in /  1007.1hPa East 0.9mph /  1.4km/h 3mph /  4.8km/h 90% 0in /  0.0mm 0 W/m2
04:26 51.4 °F /  10.8 °C 48.6 °F /  9.2 °C 29.7in /  1007.1hPa NE 0.9mph /  1.4km/h 6mph /  9.7km/h 90% 0in /  0.0mm 0 W/m2
04:31 51.4 °F /  10.8 °C 48.6 °F /  9.2 °C 29.7in /  1006.8hPa NE 2mph /  3.2km/h 3mph /  4.8km/h 90% 0in /  0.0mm 0 W/m2
04:36 51.4 °F /  10.8 °C 48.6 °F /  9.2 °C 29.7in /  1006.8hPa ENE 4.9mph /  7.9km/h 8mph /  12.9km/h 90% 0in /  0.0mm 0 W/m2
04:41 51.4 °F /  10.8 °C 48.6 °F /  9.2 °C 29.7in /  1006.8hPa NNE 2.9mph /  4.7km/h 6mph /  9.7km/h 90% 0in /  0.0mm 0 W/m2
04:46 51.4 °F /  10.8 °C 48.6 °F /  9.2 °C 29.7in /  1006.8hPa NE 0.9mph /  1.4km/h 8mph /  12.9km/h 90% 0in /  0.0mm 0 W/m2
04:51 51.3 °F /  10.7 °C 48.4 °F /  9.1 °C 29.7in /  1006.8hPa ENE 0.9mph /  1.4km/h 1mph /  1.6km/h 90% 0in /  0.0mm 0 W/m2
04:56 51.1 °F /  10.6 °C 48.2 °F /  9 °C 29.7in /  1006.8hPa North 0.9mph /  1.4km/h 3mph /  4.8km/h 90% 0in /  0.0mm 0 W/m2
05:01 50.7 °F /  10.4 °C 47.8 °F /  8.8 °C 29.7in /  1006.8hPa NNE 0.9mph /  1.4km/h 1mph /  1.6km/h 90% 0in /  0.0mm 0 W/m2
05:06 50.7 °F /  10.4 °C 48.2 °F /  9 °C 29.7in /  1006.4hPa ENE 4mph /  6.4km/h 9mph /  14.5km/h 91% 0in /  0.0mm 0 W/m2
05:11 51.1 °F /  10.6 °C 48.6 °F /  9.2 °C 29.7in /  1006.4hPa WNW 2mph /  3.2km/h 5mph /  8km/h 91% 0in /  0.0mm 0 W/m2
05:16 51.1 °F /  10.6 °C 48.6 °F /  9.2 °C 29.7in /  1006.4hPa Calm   9mph /  14.5km/h 91% 0in /  0.0mm 0 W/m2
05:21 51.1 °F /  10.6 °C 48.2 °F /  9 °C 29.7in /  1006.4hPa Calm   2mph /  3.2km/h 90% 0in /  0.0mm 0 W/m2
05:26 50.7 °F /  10.4 °C 47.8 °F /  8.8 °C 29.7in /  1006.4hPa Calm   3mph /  4.8km/h 90% 0in /  0.0mm 0 W/m2
05:31 50.7 °F /  10.4 °C 48.2 °F /  9 °C 29.7in /  1006.4hPa Calm   2mph /  3.2km/h 91% 0in /  0.0mm 0 W/m2
05:36 50.5 °F /  10.3 °C 48 °F /  8.9 °C 29.7in /  1006.4hPa Calm   2mph /  3.2km/h 91% 0in /  0.0mm 0 W/m2
05:41 50.5 °F /  10.3 °C 48 °F /  8.9 °C 29.7in /  1006.4hPa North 0.9mph /  1.4km/h 2mph /  3.2km/h 91% 0in /  0.0mm 0 W/m2
05:46 50.4 °F /  10.2 °C 47.8 °F /  8.8 °C 29.7in /  1006.4hPa Calm   2mph /  3.2km/h 91% 0in /  0.0mm 0 W/m2
05:51 50.4 °F /  10.2 °C 47.8 °F /  8.8 °C 29.7in /  1006.4hPa Calm     91% 0in /  0.0mm 0 W/m2
05:56 50.2 °F /  10.1 °C 48 °F /  8.9 °C 29.7in /  1006.4hPa Calm   2mph /  3.2km/h 92% 0in /  0.0mm 0 W/m2
06:01 49.8 °F /  9.9 °C 47.7 °F /  8.7 °C 29.7in /  1006.4hPa Calm   2mph /  3.2km/h 92% 0in /  0.0mm 0 W/m2
06:06 49.6 °F /  9.8 °C 47.5 °F /  8.6 °C 29.7in /  1006.1hPa Calm     92% 0in /  0.0mm 0 W/m2
06:11 49.5 °F /  9.7 °C 47.3 °F /  8.5 °C 29.7in /  1006.4hPa Calm   2mph /  3.2km/h 92% 0in /  0.0mm 0 W/m2
06:16 49.5 °F /  9.7 °C 47.5 °F /  8.6 °C 29.7in /  1006.4hPa Calm     93% 0in /  0.0mm 0 W/m2
06:21 49.3 °F /  9.6 °C 47.3 °F /  8.5 °C 29.7in /  1006.4hPa WNW 2mph /  3.2km/h 2mph /  3.2km/h 93% 0in /  0.0mm 0 W/m2
06:26 49.3 °F /  9.6 °C 47.3 °F /  8.5 °C 29.7in /  1006.4hPa Calm     93% 0in /  0.0mm 0 W/m2
06:31 49.3 °F /  9.6 °C 47.7 °F /  8.7 °C 29.7in /  1006.4hPa Calm     94% 0in /  0.0mm 0 W/m2
06:36 49.1 °F /  9.5 °C 47.5 °F /  8.6 °C 29.7in /  1006.4hPa Calm     94% 0in /  0.0mm 0 W/m2
06:41 49.1 °F /  9.5 °C 47.5 °F /  8.6 °C 29.7in /  1006.4hPa Calm   2mph /  3.2km/h 94% 0in /  0.0mm 0 W/m2
06:46 48.9 °F /  9.4 °C 47.3 °F /  8.5 °C 29.7in /  1006.4hPa Calm     94% 0in /  0.0mm 0 W/m2
06:51 48.9 °F /  9.4 °C 47.3 °F /  8.5 °C 29.7in /  1006.4hPa SSW 0.9mph /  1.4km/h 1mph /  1.6km/h 94% 0in /  0.0mm 0 W/m2
06:56 48.7 °F /  9.3 °C 47.1 °F /  8.4 °C 29.7in /  1006.1hPa ENE 0.9mph /  1.4km/h 3mph /  4.8km/h 94% 0in /  0.0mm 0 W/m2
07:02 48.7 °F /  9.3 °C 47.1 °F /  8.4 °C 29.7in /  1006.4hPa Calm     94% 0in /  0.0mm 0 W/m2
07:07 48.7 °F /  9.3 °C 47.1 °F /  8.4 °C 29.7in /  1006.4hPa Calm   2mph /  3.2km/h 94% 0in /  0.0mm 0 W/m2
07:12 48.7 °F /  9.3 °C 47.3 °F /  8.5 °C 29.7in /  1006.1hPa ENE 0.9mph /  1.4km/h 3mph /  4.8km/h 95% 0in /  0.0mm 0 W/m2
07:17 48.9 °F /  9.4 °C 47.5 °F /  8.6 °C 29.7in /  1006.4hPa Calm   1mph /  1.6km/h 95% 0in /  0.0mm 0 W/m2
07:22 49.1 °F /  9.5 °C 47.7 °F /  8.7 °C 29.7in /  1006.1hPa Calm   2mph /  3.2km/h 95% 0in /  0.0mm 0 W/m2
07:27 49.3 °F /  9.6 °C 47.8 °F /  8.8 °C 29.7in /  1006.1hPa Calm   1mph /  1.6km/h 95% 0in /  0.0mm 5 W/m2
07:32 49.3 °F /  9.6 °C 47.8 °F /  8.8 °C 29.7in /  1006.1hPa NE 0.9mph /  1.4km/h 2mph /  3.2km/h 95% 0in /  0.0mm 9 W/m2
07:37 49.5 °F /  9.7 °C 48 °F /  8.9 °C 29.7in /  1006.1hPa NE 2.9mph /  4.7km/h 3mph /  4.8km/h 95% 0in /  0.0mm 11 W/m2
07:42 49.6 °F /  9.8 °C 48.2 °F /  9 °C 29.7in /  1006.1hPa ENE 0.9mph /  1.4km/h 3mph /  4.8km/h 95% 0in /  0.0mm 14 W/m2
07:47 50 °F /  10 °C 48.4 °F /  9.1 °C 29.7in /  1006.1hPa ENE 2mph /  3.2km/h 3mph /  4.8km/h 94% 0in /  0.0mm 19 W/m2
07:52 50.4 °F /  10.2 °C 48.7 °F /  9.3 °C 29.7in /  1006.1hPa ENE 2.9mph /  4.7km/h 4mph /  6.4km/h 94% 0in /  0.0mm 19 W/m2
07:57 50.5 °F /  10.3 °C 48.9 °F /  9.4 °C 29.7in /  1006.1hPa ENE 2mph /  3.2km/h 3mph /  4.8km/h 94% 0in /  0.0mm 21 W/m2
08:02 50.7 °F /  10.4 °C 48.7 °F /  9.3 °C 29.7in /  1005.8hPa Calm   2mph /  3.2km/h 93% 0in /  0.0mm 26 W/m2
08:07 50.9 °F /  10.5 °C 48.9 °F /  9.4 °C 29.7in /  1005.8hPa ENE 2mph /  3.2km/h 3mph /  4.8km/h 93% 0in /  0.0mm 26 W/m2
08:12 51.1 °F /  10.6 °C 49.1 °F /  9.5 °C 29.7in /  1006.1hPa East 2.9mph /  4.7km/h 4mph /  6.4km/h 93% 0in /  0.0mm 26 W/m2
08:17 51.4 °F /  10.8 °C 49.3 °F /  9.6 °C 29.7in /  1006.1hPa East 0.9mph /  1.4km/h 3mph /  4.8km/h 92% 0in /  0.0mm 39 W/m2
08:22 51.6 °F /  10.9 °C 49.5 °F /  9.7 °C 29.7in /  1006.1hPa ENE 0.9mph /  1.4km/h 4mph /  6.4km/h 92% 0in /  0.0mm 39 W/m2
08:27 51.8 °F /  11 °C 49.3 °F /  9.6 °C 29.7in /  1006.1hPa Calm     91% 0in /  0.0mm 26 W/m2
08:32 52 °F /  11.1 °C 49.5 °F /  9.7 °C 29.7in /  1006.1hPa ENE 0.9mph /  1.4km/h 1mph /  1.6km/h 91% 0in /  0.0mm 30 W/m2
08:37 52.2 °F /  11.2 °C 49.6 °F /  9.8 °C 29.7in /  1006.1hPa Calm     91% 0in /  0.0mm 32 W/m2
08:42 52.2 °F /  11.2 °C 49.6 °F /  9.8 °C 29.7in /  1006.1hPa Calm   1mph /  1.6km/h 91% 0in /  0.0mm 47 W/m2
08:47 52.5 °F /  11.4 °C 49.6 °F /  9.8 °C 29.7in /  1005.8hPa NE 4.9mph /  7.9km/h 6mph /  9.7km/h 90% 0in /  0.0mm 69 W/m2
08:52 52.9 °F /  11.6 °C 49.6 °F /  9.8 °C 29.7in /  1005.8hPa East 0.9mph /  1.4km/h 3mph /  4.8km/h 89% 0in /  0.0mm 104 W/m2
08:57 53.2 °F /  11.8 °C 50 °F /  10 °C 29.7in /  1005.8hPa NE 4mph /  6.4km/h 4mph /  6.4km/h 89% 0in /  0.0mm 97 W/m2
09:02 53.4 °F /  11.9 °C 50 °F /  10 °C 29.7in /  1005.8hPa ENE 2mph /  3.2km/h 5mph /  8km/h 88% 0in /  0.0mm 69 W/m2
09:07 54 °F /  12.2 °C 50.2 °F /  10.1 °C 29.7in /  1005.8hPa ESE 2mph /  3.2km/h 4mph /  6.4km/h 87% 0in /  0.0mm 84 W/m2
09:12 54.1 °F /  12.3 °C 50 °F /  10 °C 29.7in /  1005.4hPa ENE 2mph /  3.2km/h 4mph /  6.4km/h 86% 0in /  0.0mm 93 W/m2
09:17 54.3 °F /  12.4 °C 50.2 °F /  10.1 °C 29.7in /  1005.4hPa East 2mph /  3.2km/h 3mph /  4.8km/h 86% 0in /  0.0mm 127 W/m2
09:22 54.3 °F /  12.4 °C 50.2 °F /  10.1 °C 29.7in /  1005.4hPa ENE 2mph /  3.2km/h 6mph /  9.7km/h 86% 0in /  0.0mm 135 W/m2
09:27 54.5 °F /  12.5 °C 50.4 °F /  10.2 °C 29.7in /  1005.4hPa NE 4.9mph /  7.9km/h 6mph /  9.7km/h 86% 0in /  0.0mm 125 W/m2
09:32 54.7 °F /  12.6 °C 50.2 °F /  10.1 °C 29.7in /  1005.4hPa NE 2mph /  3.2km/h 4mph /  6.4km/h 85% 0in /  0.0mm 102 W/m2
09:37 54.7 °F /  12.6 °C 50.2 °F /  10.1 °C 29.7in /  1005.4hPa East 4mph /  6.4km/h 6mph /  9.7km/h 85% 0in /  0.0mm 113 W/m2
09:42 54.9 °F /  12.7 °C 50.4 °F /  10.2 °C 29.7in /  1005.4hPa ENE 2.9mph /  4.7km/h 4mph /  6.4km/h 85% 0in /  0.0mm 113 W/m2
09:47 54.9 °F /  12.7 °C 50.4 °F /  10.2 °C 29.7in /  1005.4hPa SE 2.9mph /  4.7km/h 5mph /  8km/h 85% 0in /  0.0mm 104 W/m2
09:52 54.9 °F /  12.7 °C 50.4 °F /  10.2 °C 29.7in /  1005.1hPa NE 2mph /  3.2km/h 5mph /  8km/h 85% 0in /  0.0mm 93 W/m2
09:57 55 °F /  12.8 °C 50.4 °F /  10.2 °C 29.7in /  1005.1hPa NE 2mph /  3.2km/h 4mph /  6.4km/h 84% 0in /  0.0mm 121 W/m2
10:02 55.2 °F /  12.9 °C 50.5 °F /  10.3 °C 29.7in /  1005.1hPa NE 2.9mph /  4.7km/h 4mph /  6.4km/h 84% 0in /  0.0mm 135 W/m2
10:07 55.4 °F /  13 °C 50.7 °F /  10.4 °C 29.7in /  1005.1hPa NE 2.9mph /  4.7km/h 5mph /  8km/h 84% 0in /  0.0mm 132 W/m2
10:12 55.6 °F /  13.1 °C 50.5 °F /  10.3 °C 29.7in /  1005.1hPa NE 2.9mph /  4.7km/h 4mph /  6.4km/h 83% 0in /  0.0mm 116 W/m2
10:17 55.6 °F /  13.1 °C 50.2 °F /  10.1 °C 29.7in /  1005.1hPa NNE 2mph /  3.2km/h 4mph /  6.4km/h 82% 0in /  0.0mm 107 W/m2
10:22 55.9 °F /  13.3 °C 50.5 °F /  10.3 °C 29.7in /  1005.4hPa NE 2.9mph /  4.7km/h 4mph /  6.4km/h 82% 0in /  0.0mm 105 W/m2
10:27 56.1 °F /  13.4 °C 50 °F /  10 °C 29.7in /  1005.4hPa North 2mph /  3.2km/h 4mph /  6.4km/h 80% 0in /  0.0mm 135 W/m2
10:32 56.5 °F /  13.6 °C 50.4 °F /  10.2 °C 29.7in /  1005.4hPa ENE 0.9mph /  1.4km/h 3mph /  4.8km/h 80% 0in /  0.0mm 77 W/m2
10:43 57 °F /  13.9 °C 49.5 °F /  9.7 °C 29.7in /  1005.4hPa Calm   2mph /  3.2km/h 76% 0in /  0.0mm 46 W/m2
10:48 57.2 °F /  14 °C 49.6 °F /  9.8 °C 29.7in /  1005.4hPa North 2.9mph /  4.7km/h 4mph /  6.4km/h 76% 0in /  0.0mm 40 W/m2
10:53 57.2 °F /  14 °C 49.6 °F /  9.8 °C 29.7in /  1005.4hPa Calm   4mph /  6.4km/h 76% 0in /  0.0mm 35 W/m2
10:58 57.2 °F /  14 °C 49.6 °F /  9.8 °C 29.7in /  1005.4hPa NW 0.9mph /  1.4km/h 3mph /  4.8km/h 76% 0in /  0.0mm 37 W/m2
11:03 57.2 °F /  14 °C 49.6 °F /  9.8 °C 29.7in /  1005.1hPa NW 0.9mph /  1.4km/h 6mph /  9.7km/h 76% 0in /  0.0mm 35 W/m2
11:08 57 °F /  13.9 °C 49.8 °F /  9.9 °C 29.7in /  1005.4hPa WNW 0.9mph /  1.4km/h 3mph /  4.8km/h 77% 0in /  0.0mm 46 W/m2
11:13 56.8 °F /  13.8 °C 50 °F /  10 °C 29.7in /  1005.1hPa Calm   4mph /  6.4km/h 78% 0in /  0.0mm 53 W/m2
11:18 56.7 °F /  13.7 °C 50.2 °F /  10.1 °C 29.7in /  1005.4hPa North 0.9mph /  1.4km/h 4mph /  6.4km/h 79% 0in /  0.0mm 74 W/m2
11:23 56.5 °F /  13.6 °C 50.7 °F /  10.4 °C 29.7in /  1005.4hPa NE 2mph /  3.2km/h 3mph /  4.8km/h 81% 0in /  0.0mm 69 W/m2
11:28 56.1 °F /  13.4 °C 50.7 °F /  10.4 °C 29.7in /  1005.1hPa Calm   4mph /  6.4km/h 82% 0in /  0.0mm 62 W/m2
11:33 55.9 °F /  13.3 °C 50.5 °F /  10.3 °C 29.7in /  1005.1hPa Calm   4mph /  6.4km/h 82% 0.01in /  0.2mm 65 W/m2
11:38 55.9 °F /  13.3 °C 50.9 °F /  10.5 °C 29.7in /  1005.1hPa ENE 0.9mph /  1.4km/h 3mph /  4.8km/h 83% 0.01in /  0.2mm 76 W/m2
11:43 55.8 °F /  13.2 °C 51.1 °F /  10.6 °C 29.7in /  1005.4hPa Calm   4mph /  6.4km/h 84% 0.01in /  0.2mm 120 W/m2
11:48 55.6 °F /  13.1 °C 51.1 °F /  10.6 °C 29.7in /  1005.1hPa ENE 4mph /  6.4km/h 4mph /  6.4km/h 85% 0.01in /  0.2mm 162 W/m2
11:53 55.6 °F /  13.1 °C 51.1 °F /  10.6 °C 29.7in /  1005.1hPa Calm   6mph /  9.7km/h 85% 0.01in /  0.2mm 127 W/m2
11:58 55.6 °F /  13.1 °C 51.1 °F /  10.6 °C 29.7in /  1005.1hPa WNW 2mph /  3.2km/h 4mph /  6.4km/h 85% 0.01in /  0.2mm 86 W/m2
12:03 55.8 °F /  13.2 °C 51.3 °F /  10.7 °C 29.7in /  1005.1hPa ENE 0.9mph /  1.4km/h 6mph /  9.7km/h 85% 0.01in /  0.2mm 121 W/m2
12:08 55.8 °F /  13.2 °C 51.3 °F /  10.7 °C 29.7in /  1004.7hPa NE 2mph /  3.2km/h 5mph /  8km/h 85% 0.01in /  0.2mm 127 W/m2
12:13 55.9 °F /  13.3 °C 51.4 °F /  10.8 °C 29.7in /  1005.1hPa ENE 2mph /  3.2km/h 3mph /  4.8km/h 85% 0.01in /  0.2mm 98 W/m2
12:18 55.9 °F /  13.3 °C 51.4 °F /  10.8 °C 29.7in /  1004.7hPa ENE 0.9mph /  1.4km/h 2mph /  3.2km/h 85% 0.01in /  0.2mm 118 W/m2
12:24 55.9 °F /  13.3 °C 51.4 °F /  10.8 °C 29.7in /  1004.7hPa East 0.9mph /  1.4km/h 4mph /  6.4km/h 85% 0.01in /  0.2mm 128 W/m2
12:29 55.9 °F /  13.3 °C 51.3 °F /  10.7 °C 29.7in /  1004.7hPa NNE 2mph /  3.2km/h 4mph /  6.4km/h 84% 0.01in /  0.2mm 113 W/m2
12:34 56.1 °F /  13.4 °C 51.4 °F /  10.8 °C 29.7in /  1004.7hPa NE 2mph /  3.2km/h 4mph /  6.4km/h 84% 0in /  0.0mm 72 W/m2
12:39 56.1 °F /  13.4 °C 51.4 °F /  10.8 °C 29.7in /  1004.7hPa North 2mph /  3.2km/h 2mph /  3.2km/h 84% 0in /  0.0mm 76 W/m2
12:44 56.3 °F /  13.5 °C 51.4 °F /  10.8 °C 29.7in /  1004.7hPa Calm   4mph /  6.4km/h 84% 0in /  0.0mm 42 W/m2
12:49 56.1 °F /  13.4 °C 51.4 °F /  10.8 °C 29.7in /  1004.7hPa NNW 0.9mph /  1.4km/h 3mph /  4.8km/h 84% 0in /  0.0mm 30 W/m2
12:54 56.1 °F /  13.4 °C 51.4 °F /  10.8 °C 29.7in /  1004.7hPa Calm   1mph /  1.6km/h 84% 0in /  0.0mm 42 W/m2
12:59 56.1 °F /  13.4 °C 51.4 °F /  10.8 °C 29.7in /  1004.7hPa Calm   2mph /  3.2km/h 84% 0.01in /  0.2mm 42 W/m2
13:04 55.9 °F /  13.3 °C 51.4 °F /  10.8 °C 29.7in /  1004.7hPa NNW 2mph /  3.2km/h 3mph /  4.8km/h 85% 0.01in /  0.2mm 37 W/m2
13:09 55.9 °F /  13.3 °C 51.4 °F /  10.8 °C 29.7in /  1004.7hPa NNW 4mph /  6.4km/h 4mph /  6.4km/h 85% 0.01in /  0.2mm 47 W/m2
13:14 55.8 °F /  13.2 °C 51.6 °F /  10.9 °C 29.7in /  1004.7hPa NNE 0.9mph /  1.4km/h 4mph /  6.4km/h 86% 0.01in /  0.2mm 53 W/m2
13:19 55.6 °F /  13.1 °C 51.4 °F /  10.8 °C 29.7in /  1004.7hPa NE 0.9mph /  1.4km/h 4mph /  6.4km/h 86% 0.01in /  0.2mm 49 W/m2
13:24 55.6 °F /  13.1 °C 51.4 °F /  10.8 °C 29.7in /  1004.7hPa NW 0.9mph /  1.4km/h 4mph /  6.4km/h 86% 0.02in /  0.5mm 51 W/m2
13:29 55.4 °F /  13 °C 51.6 °F /  10.9 °C 29.7in /  1004.4hPa NNW 2mph /  3.2km/h 8mph /  12.9km/h 87% 0.02in /  0.5mm 62 W/m2
13:34 55.2 °F /  12.9 °C 51.4 °F /  10.8 °C 29.7in /  1004.4hPa NNW 0.9mph /  1.4km/h 5mph /  8km/h 87% 0.02in /  0.5mm 74 W/m2
13:39 55.2 °F /  12.9 °C 51.4 °F /  10.8 °C 29.7in /  1004.4hPa NW 2.9mph /  4.7km/h 8mph /  12.9km/h 87% 0.02in /  0.5mm 65 W/m2
13:44 55.2 °F /  12.9 °C 51.4 °F /  10.8 °C 29.7in /  1004.4hPa NW 2.9mph /  4.7km/h 3mph /  4.8km/h 87% 0.02in /  0.5mm 67 W/m2
13:49 55.2 °F /  12.9 °C 51.8 °F /  11 °C 29.7in /  1004.4hPa NW 4mph /  6.4km/h 5mph /  8km/h 88% 0.02in /  0.5mm 65 W/m2
13:54 55 °F /  12.8 °C 51.6 °F /  10.9 °C 29.7in /  1004.4hPa NE 2mph /  3.2km/h 3mph /  4.8km/h 88% 0.02in /  0.5mm 46 W/m2
13:59 55 °F /  12.8 °C 51.8 °F /  11 °C 29.7in /  1004.4hPa Calm   2mph /  3.2km/h 89% 0.02in /  0.5mm 44 W/m2
14:04 54.9 °F /  12.7 °C 51.6 °F /  10.9 °C 29.7in /  1004.4hPa NNE 2mph /  3.2km/h 3mph /  4.8km/h 89% 0.02in /  0.5mm 42 W/m2
14:09 54.9 °F /  12.7 °C 52 °F /  11.1 °C 29.7in /  1004.1hPa NNE 0.9mph /  1.4km/h 2mph /  3.2km/h 90% 0.03in /  0.8mm 47 W/m2
14:14 54.7 °F /  12.6 °C 51.8 °F /  11 °C 29.7in /  1004.1hPa NNE 0.9mph /  1.4km/h 2mph /  3.2km/h 90% 0.04in /  1.0mm 49 W/m2
14:19 54.5 °F /  12.5 °C 51.6 °F /  10.9 °C 29.7in /  1004.1hPa NNW 0.9mph /  1.4km/h 2mph /  3.2km/h 90% 0.05in /  1.3mm 54 W/m2
14:24 54.3 °F /  12.4 °C 51.8 °F /  11 °C 29.7in /  1004.1hPa North 2mph /  3.2km/h 3mph /  4.8km/h 91% 0.05in /  1.3mm 53 W/m2
14:29 54.3 °F /  12.4 °C 51.8 °F /  11 °C 29.7in /  1004.1hPa North 0.9mph /  1.4km/h 2mph /  3.2km/h 91% 0.06in /  1.5mm 49 W/m2
14:34 54.3 °F /  12.4 °C 51.8 °F /  11 °C 29.7in /  1004.1hPa Calm   3mph /  4.8km/h 91% 0.06in /  1.5mm 44 W/m2
14:39 54.1 °F /  12.3 °C 51.8 °F /  11 °C 29.7in /  1004.1hPa Calm   3mph /  4.8km/h 92% 0.07in /  1.8mm 47 W/m2
14:44 54.1 °F /  12.3 °C 51.8 °F /  11 °C 29.7in /  1004.1hPa ENE 0.9mph /  1.4km/h 2mph /  3.2km/h 92% 0.07in /  1.8mm 40 W/m2
14:49 54.1 °F /  12.3 °C 51.8 °F /  11 °C 29.7in /  1004.1hPa ENE 2.9mph /  4.7km/h 4mph /  6.4km/h 92% 0.07in /  1.8mm 26 W/m2
14:54 54.1 °F /  12.3 °C 51.8 °F /  11 °C 29.7in /  1004.1hPa WNW 2mph /  3.2km/h 2mph /  3.2km/h 92% 0.08in /  2.0mm 30 W/m2
14:59 54 °F /  12.2 °C 51.6 °F /  10.9 °C 29.7in /  1004.1hPa WNW 0.9mph /  1.4km/h 2mph /  3.2km/h 92% 0.09in /  2.3mm 32 W/m2
15:04 54 °F /  12.2 °C 52 °F /  11.1 °C 29.7in /  1004.1hPa Calm   1mph /  1.6km/h 93% 0.08in /  2.0mm 32 W/m2
15:09 53.8 °F /  12.1 °C 51.8 °F /  11 °C 29.7in /  1004.1hPa NW 2.9mph /  4.7km/h 3mph /  4.8km/h 93% 0.08in /  2.0mm 28 W/m2
15:14 53.8 °F /  12.1 °C 51.8 °F /  11 °C 29.7in /  1004.1hPa West 0.9mph /  1.4km/h 2mph /  3.2km/h 93% 0.08in /  2.0mm 23 W/m2
15:19 53.8 °F /  12.1 °C 51.8 °F /  11 °C 29.7in /  1004.1hPa NNW 0.9mph /  1.4km/h 1mph /  1.6km/h 93% 0.07in /  1.8mm 21 W/m2
15:24 53.8 °F /  12.1 °C 51.8 °F /  11 °C 29.7in /  1004.1hPa North 0.9mph /  1.4km/h 4mph /  6.4km/h 93% 0.07in /  1.8mm 25 W/m2
15:29 53.8 °F /  12.1 °C 51.8 °F /  11 °C 29.7in /  1004.4hPa ENE 4mph /  6.4km/h 4mph /  6.4km/h 93% 0.06in /  1.5mm 12 W/m2
15:34 53.8 °F /  12.1 °C 51.8 °F /  11 °C 29.7in /  1004.1hPa Calm   4mph /  6.4km/h 93% 0.07in /  1.8mm 28 W/m2
15:39 53.8 °F /  12.1 °C 51.8 °F /  11 °C 29.6in /  1003.7hPa East 0.9mph /  1.4km/h 4mph /  6.4km/h 93% 0.09in /  2.3mm 25 W/m2
15:44 53.6 °F /  12 °C 51.6 °F /  10.9 °C 29.7in /  1004.1hPa NNW 2mph /  3.2km/h 2mph /  3.2km/h 93% 0.09in /  2.3mm 11 W/m2
15:49 53.4 °F /  11.9 °C 51.4 °F /  10.8 °C 29.7in /  1004.1hPa NW 2mph /  3.2km/h 5mph /  8km/h 93% 0.09in /  2.3mm 12 W/m2
15:54 53.4 °F /  11.9 °C 51.4 °F /  10.8 °C 29.7in /  1004.1hPa Calm   5mph /  8km/h 93% 0.09in /  2.3mm 19 W/m2
16:00 53.4 °F /  11.9 °C 51.4 °F /  10.8 °C 29.7in /  1004.1hPa East 0.9mph /  1.4km/h 2mph /  3.2km/h 93% 0.09in /  2.3mm 23 W/m2
16:05 53.2 °F /  11.8 °C 51.3 °F /  10.7 °C 29.7in /  1004.1hPa West 0.9mph /  1.4km/h 6mph /  9.7km/h 93% 0.09in /  2.3mm 11 W/m2
16:10 53.2 °F /  11.8 °C 51.3 °F /  10.7 °C 29.7in /  1004.1hPa North 0.9mph /  1.4km/h 3mph /  4.8km/h 93% 0.1in /  2.5mm 11 W/m2
16:15 53.1 °F /  11.7 °C 51.1 °F /  10.6 °C 29.7in /  1004.1hPa NE 0.9mph /  1.4km/h 6mph /  9.7km/h 93% 0.1in /  2.5mm 7 W/m2
16:20 53.1 °F /  11.7 °C 50.7 °F /  10.4 °C 29.7in /  1004.1hPa West 2.9mph /  4.7km/h 3mph /  4.8km/h 92% 0.11in /  2.8mm 5 W/m2
16:25 52.9 °F /  11.6 °C 50.9 °F /  10.5 °C 29.7in /  1004.1hPa NNW 2.9mph /  4.7km/h 3mph /  4.8km/h 93% 0.1in /  2.5mm 0 W/m2
16:30 52.9 °F /  11.6 °C 50.9 °F /  10.5 °C 29.7in /  1004.4hPa North 0.9mph /  1.4km/h 1mph /  1.6km/h 93% 0.11in /  2.8mm 5 W/m2
16:35 52.7 °F /  11.5 °C 50.7 °F /  10.4 °C 29.7in /  1004.1hPa West 0.9mph /  1.4km/h 2mph /  3.2km/h 93% 0.1in /  2.5mm 0 W/m2
16:40 52.5 °F /  11.4 °C 50.5 °F /  10.3 °C 29.7in /  1004.1hPa ENE 2.9mph /  4.7km/h 3mph /  4.8km/h 93% 0.09in /  2.3mm 5 W/m2
16:45 52.5 °F /  11.4 °C 50.5 °F /  10.3 °C 29.7in /  1004.1hPa NNW 0.9mph /  1.4km/h 2mph /  3.2km/h 93% 0.09in /  2.3mm 5 W/m2
16:50 52.5 °F /  11.4 °C 50.5 °F /  10.3 °C 29.7in /  1004.1hPa North 0.9mph /  1.4km/h 2mph /  3.2km/h 93% 0.09in /  2.3mm 7 W/m2
16:55 52.3 °F /  11.3 °C 50.4 °F /  10.2 °C 29.7in /  1004.1hPa Calm   4mph /  6.4km/h 93% 0.09in /  2.3mm 5 W/m2
17:00 52.3 °F /  11.3 °C 50.4 °F /  10.2 °C 29.7in /  1004.1hPa East 2mph /  3.2km/h 4mph /  6.4km/h 93% 0.09in /  2.3mm 0 W/m2
17:05 52.3 °F /  11.3 °C 50.4 °F /  10.2 °C 29.7in /  1004.1hPa North 2mph /  3.2km/h 4mph /  6.4km/h 93% 0.09in /  2.3mm 5 W/m2
17:10 52.3 °F /  11.3 °C 50.4 °F /  10.2 °C 29.6in /  1003.7hPa ENE 2mph /  3.2km/h 7mph /  11.3km/h 93% 0.09in /  2.3mm 0 W/m2
17:15 52.2 °F /  11.2 °C 50.2 °F /  10.1 °C 29.6in /  1003.7hPa Calm   5mph /  8km/h 93% 0.09in /  2.3mm 0 W/m2
17:20 52.2 °F /  11.2 °C 50.2 °F /  10.1 °C 29.6in /  1003.7hPa NE 0.9mph /  1.4km/h 7mph /  11.3km/h 93% 0.09in /  2.3mm 0 W/m2
17:25 52.2 °F /  11.2 °C 50.2 °F /  10.1 °C 29.6in /  1003.7hPa NE 2mph /  3.2km/h 4mph /  6.4km/h 93% 0.09in /  2.3mm 0 W/m2
17:30 52.2 °F /  11.2 °C 50.2 °F /  10.1 °C 29.6in /  1003.4hPa Calm   3mph /  4.8km/h 93% 0.09in /  2.3mm 0 W/m2
17:35 52.2 °F /  11.2 °C 50.2 °F /  10.1 °C 29.6in /  1003.7hPa North 2mph /  3.2km/h 4mph /  6.4km/h 93% 0.08in /  2.0mm 0 W/m2
17:40 52.2 °F /  11.2 °C 50.2 °F /  10.1 °C 29.6in /  1003.7hPa North 0.9mph /  1.4km/h 2mph /  3.2km/h 93% 0.07in /  1.8mm 0 W/m2
17:45 52.2 °F /  11.2 °C 50.2 °F /  10.1 °C 29.6in /  1003.7hPa NE 2mph /  3.2km/h 3mph /  4.8km/h 93% 0.06in /  1.5mm 0 W/m2
17:50 52.2 °F /  11.2 °C 50.2 °F /  10.1 °C 29.6in /  1003.7hPa ENE 2mph /  3.2km/h 6mph /  9.7km/h 93% 0.05in /  1.3mm 0 W/m2
17:55 52.2 °F /  11.2 °C 49.8 °F /  9.9 °C 29.6in /  1003.4hPa NE 4.9mph /  7.9km/h 9mph /  14.5km/h 92% 0.05in /  1.3mm 0 W/m2
18:00 52.2 °F /  11.2 °C 49.8 °F /  9.9 °C 29.6in /  1003.7hPa ENE 4mph /  6.4km/h 4mph /  6.4km/h 92% 0.04in /  1.0mm 0 W/m2
18:05 52.2 °F /  11.2 °C 49.8 °F /  9.9 °C 29.6in /  1003.4hPa NE 2mph /  3.2km/h 9mph /  14.5km/h 92% 0.03in /  0.8mm 0 W/m2
18:10 52.2 °F /  11.2 °C 49.8 °F /  9.9 °C 29.6in /  1003.4hPa North 0.9mph /  1.4km/h 6mph /  9.7km/h 92% 0.02in /  0.5mm 0 W/m2
18:15 52.2 °F /  11.2 °C 49.8 °F /  9.9 °C 29.6in /  1003.7hPa ENE 2mph /  3.2km/h 3mph /  4.8km/h 92% 0.02in /  0.5mm 0 W/m2
18:20 52.2 °F /  11.2 °C 49.8 °F /  9.9 °C 29.6in /  1003.7hPa NW 0.9mph /  1.4km/h 6mph /  9.7km/h 92% 0.02in /  0.5mm 0 W/m2
18:25 52.2 °F /  11.2 °C 49.8 °F /  9.9 °C 29.7in /  1004.1hPa North 2mph /  3.2km/h 3mph /  4.8km/h 92% 0.02in /  0.5mm 0 W/m2
18:30 52 °F /  11.1 °C 49.6 °F /  9.8 °C 29.6in /  1003.7hPa Calm   1mph /  1.6km/h 92% 0.02in /  0.5mm 0 W/m2
18:35 52 °F /  11.1 °C 49.6 °F /  9.8 °C 29.6in /  1003.7hPa Calm   2mph /  3.2km/h 92% 0.02in /  0.5mm 0 W/m2
18:40 52 °F /  11.1 °C 49.6 °F /  9.8 °C 29.7in /  1004.1hPa WNW 0.9mph /  1.4km/h 7mph /  11.3km/h 92% 0.02in /  0.5mm 0 W/m2
18:45 51.8 °F /  11 °C 49.6 °F /  9.8 °C 29.7in /  1004.1hPa Calm   2mph /  3.2km/h 92% 0.02in /  0.5mm 0 W/m2
18:50 51.8 °F /  11 °C 49.6 °F /  9.8 °C 29.7in /  1004.1hPa NNW 2mph /  3.2km/h 7mph /  11.3km/h 92% 0.02in /  0.5mm 0 W/m2
18:55 51.6 °F /  10.9 °C 49.5 °F /  9.7 °C 29.7in /  1004.1hPa Calm   2mph /  3.2km/h 92% 0.01in /  0.2mm 0 W/m2
19:00 51.6 °F /  10.9 °C 49.5 °F /  9.7 °C 29.7in /  1004.1hPa East 0.9mph /  1.4km/h 2mph /  3.2km/h 92% 0.01in /  0.2mm 0 W/m2
19:05 51.6 °F /  10.9 °C 49.5 °F /  9.7 °C 29.6in /  1003.7hPa NE 0.9mph /  1.4km/h 2mph /  3.2km/h 92% 0.01in /  0.2mm 0 W/m2
19:10 51.6 °F /  10.9 °C 49.5 °F /  9.7 °C 29.6in /  1003.7hPa NE 0.9mph /  1.4km/h 2mph /  3.2km/h 92% 0.02in /  0.5mm 0 W/m2
19:15 51.4 °F /  10.8 °C 49.3 °F /  9.6 °C 29.7in /  1004.1hPa NW 0.9mph /  1.4km/h 4mph /  6.4km/h 92% 0.02in /  0.5mm 0 W/m2
19:20 51.4 °F /  10.8 °C 49.3 °F /  9.6 °C 29.7in /  1004.1hPa NNW 0.9mph /  1.4km/h 2mph /  3.2km/h 92% 0.01in /  0.2mm 0 W/m2
19:25 51.4 °F /  10.8 °C 49.3 °F /  9.6 °C 29.6in /  1003.7hPa Calm   1mph /  1.6km/h 92% 0.01in /  0.2mm 0 W/m2
19:30 51.4 °F /  10.8 °C 49.3 °F /  9.6 °C 29.7in /  1004.1hPa North 0.9mph /  1.4km/h 2mph /  3.2km/h 92% 0.01in /  0.2mm 0 W/m2
19:35 51.4 °F /  10.8 °C 49.3 °F /  9.6 °C 29.6in /  1003.7hPa North 2mph /  3.2km/h 3mph /  4.8km/h 92% 0.01in /  0.2mm 0 W/m2
19:40 51.4 °F /  10.8 °C 49.3 °F /  9.6 °C 29.6in /  1003.7hPa NE 0.9mph /  1.4km/h 1mph /  1.6km/h 92% 0.01in /  0.2mm 0 W/m2
19:45 51.3 °F /  10.7 °C 49.3 °F /  9.6 °C 29.7in /  1004.1hPa WNW 2mph /  3.2km/h 4mph /  6.4km/h 93% 0.01in /  0.2mm 0 W/m2
19:50 51.3 °F /  10.7 °C 49.3 °F /  9.6 °C 29.6in /  1003.7hPa WNW 0.9mph /  1.4km/h 1mph /  1.6km/h 93% 0.01in /  0.2mm 0 W/m2
19:55 51.1 °F /  10.6 °C 49.1 °F /  9.5 °C 29.6in /  1003.7hPa NE 0.9mph /  1.4km/h 4mph /  6.4km/h 93% 0.01in /  0.2mm 0 W/m2
20:00 51.1 °F /  10.6 °C 49.1 °F /  9.5 °C 29.6in /  1003.7hPa NE 0.9mph /  1.4km/h 1mph /  1.6km/h 93% 0.01in /  0.2mm 0 W/m2
20:05 50.7 °F /  10.4 °C 48.7 °F /  9.3 °C 29.6in /  1003.7hPa Calm   2mph /  3.2km/h 93% 0.01in /  0.2mm 0 W/m2
20:10 50.7 °F /  10.4 °C 48.7 °F /  9.3 °C 29.6in /  1003.4hPa East 0.9mph /  1.4km/h 1mph /  1.6km/h 93% 0in /  0.0mm 0 W/m2
20:15 50.5 °F /  10.3 °C 48.9 °F /  9.4 °C 29.6in /  1003.7hPa Calm     94% 0in /  0.0mm 0 W/m2
20:20 50.5 °F /  10.3 °C 48.9 °F /  9.4 °C 29.6in /  1003.7hPa Calm   2mph /  3.2km/h 94% 0in /  0.0mm 0 W/m2
20:25 50.4 °F /  10.2 °C 48.7 °F /  9.3 °C 29.7in /  1004.1hPa Calm     94% 0in /  0.0mm 0 W/m2
20:30 50.4 °F /  10.2 °C 48.7 °F /  9.3 °C 29.6in /  1003.7hPa Calm     94% 0in /  0.0mm 0 W/m2
20:35 50.4 °F /  10.2 °C 48.7 °F /  9.3 °C 29.6in /  1003.7hPa Calm     94% 0in /  0.0mm 0 W/m2
20:40 50.2 °F /  10.1 °C 48.6 °F /  9.2 °C 29.6in /  1003.4hPa NE 0.9mph /  1.4km/h 4mph /  6.4km/h 94% 0in /  0.0mm 0 W/m2
20:45 50.2 °F /  10.1 °C 48.6 °F /  9.2 °C 29.6in /  1003.4hPa Calm   1mph /  1.6km/h 94% 0in /  0.0mm 0 W/m2
20:50 50.2 °F /  10.1 °C 48.7 °F /  9.3 °C 29.6in /  1003.7hPa NE 0.9mph /  1.4km/h 4mph /  6.4km/h 95% 0in /  0.0mm 0 W/m2
20:55 50.2 °F /  10.1 °C 48.7 °F /  9.3 °C 29.6in /  1003.4hPa ENE 2mph /  3.2km/h 4mph /  6.4km/h 95% 0in /  0.0mm 0 W/m2
21:00 50.2 °F /  10.1 °C 48.7 °F /  9.3 °C 29.6in /  1003.4hPa ENE 0.9mph /  1.4km/h 1mph /  1.6km/h 95% 0in /  0.0mm 0 W/m2
21:05 50.2 °F /  10.1 °C 48.7 °F /  9.3 °C 29.6in /  1003.4hPa Calm   4mph /  6.4km/h 95% 0in /  0.0mm 0 W/m2
21:10 50.2 °F /  10.1 °C 48.7 °F /  9.3 °C 29.6in /  1003.0hPa Calm   1mph /  1.6km/h 95% 0in /  0.0mm 0 W/m2
21:15 50 °F /  10 °C 48.6 °F /  9.2 °C 29.6in /  1003.4hPa Calm     95% 0in /  0.0mm 0 W/m2
21:20 50 °F /  10 °C 48.6 °F /  9.2 °C 29.6in /  1003.0hPa Calm     95% 0in /  0.0mm 0 W/m2
21:25 49.8 °F /  9.9 °C 48.4 °F /  9.1 °C 29.6in /  1003.4hPa Calm     95% 0in /  0.0mm 0 W/m2
21:30 49.8 °F /  9.9 °C 48.4 °F /  9.1 °C 29.6in /  1003.7hPa Calm     95% 0in /  0.0mm 0 W/m2
21:35 49.8 °F /  9.9 °C 48.4 °F /  9.1 °C 29.6in /  1003.4hPa Calm     95% 0in /  0.0mm 0 W/m2
21:40 49.6 °F /  9.8 °C 48.2 °F /  9 °C 29.6in /  1003.4hPa Calm     95% 0in /  0.0mm 0 W/m2
21:45 49.6 °F /  9.8 °C 48.2 °F /  9 °C 29.6in /  1003.4hPa Calm     95% 0in /  0.0mm 0 W/m2
21:50 49.6 °F /  9.8 °C 48.2 °F /  9 °C 29.6in /  1003.4hPa Calm     95% 0in /  0.0mm 0 W/m2
21:55 49.5 °F /  9.7 °C 48 °F /  8.9 °C 29.6in /  1003.7hPa ENE 0.9mph /  1.4km/h 1mph /  1.6km/h 95% 0in /  0.0mm 0 W/m2
22:00 49.6 °F /  9.8 °C 48.6 °F /  9.2 °C 29.6in /  1003.7hPa Calm   2mph /  3.2km/h 96% 0in /  0.0mm 0 W/m2
22:05 49.6 °F /  9.8 °C 48.6 °F /  9.2 °C 29.6in /  1003.4hPa Calm   2mph /  3.2km/h 96% 0in /  0.0mm 0 W/m2
22:10 49.6 °F /  9.8 °C 48.6 °F /  9.2 °C 29.6in /  1003.4hPa Calm     96% 0in /  0.0mm 0 W/m2
22:15 49.6 °F /  9.8 °C 48.6 °F /  9.2 °C 29.6in /  1003.0hPa ENE 0.9mph /  1.4km/h 2mph /  3.2km/h 96% 0in /  0.0mm 0 W/m2
22:20 49.8 °F /  9.9 °C 48.7 °F /  9.3 °C 29.6in /  1003.0hPa ENE 0.9mph /  1.4km/h 4mph /  6.4km/h 96% 0in /  0.0mm 0 W/m2
22:25 49.8 °F /  9.9 °C 48.7 °F /  9.3 °C 29.6in /  1003.0hPa NE 2mph /  3.2km/h 3mph /  4.8km/h 96% 0in /  0.0mm 0 W/m2
22:30 50 °F /  10 °C 48.9 °F /  9.4 °C 29.6in /  1003.0hPa NE 0.9mph /  1.4km/h 3mph /  4.8km/h 96% 0in /  0.0mm 0 W/m2
22:35 50 °F /  10 °C 48.9 °F /  9.4 °C 29.6in /  1003.0hPa Calm     96% 0in /  0.0mm 0 W/m2
22:40 50 °F /  10 °C 48.9 °F /  9.4 °C 29.6in /  1003.0hPa Calm   1mph /  1.6km/h 96% 0in /  0.0mm 0 W/m2
22:45 50 °F /  10 °C 48.9 °F /  9.4 °C 29.6in /  1003.0hPa NE 0.9mph /  1.4km/h 1mph /  1.6km/h 96% 0in /  0.0mm 0 W/m2
22:50 50 °F /  10 °C 48.9 °F /  9.4 °C 29.6in /  1003.0hPa Calm     96% 0in /  0.0mm 0 W/m2
22:55 50 °F /  10 °C 48.9 °F /  9.4 °C 29.6in /  1003.4hPa Calm     96% 0in /  0.0mm 0 W/m2
23:00 50 °F /  10 °C 48.9 °F /  9.4 °C 29.6in /  1003.4hPa Calm     96% 0in /  0.0mm 0 W/m2
23:05 50 °F /  10 °C 48.9 °F /  9.4 °C 29.6in /  1003.0hPa Calm   2mph /  3.2km/h 96% 0in /  0.0mm 0 W/m2
23:10 49.8 °F /  9.9 °C 48.7 °F /  9.3 °C 29.6in /  1003.4hPa NE 0.9mph /  1.4km/h 1mph /  1.6km/h 96% 0in /  0.0mm 0 W/m2
23:15 49.8 °F /  9.9 °C 48.7 °F /  9.3 °C 29.6in /  1003.0hPa Calm   2mph /  3.2km/h 96% 0in /  0.0mm 0 W/m2
23:20 49.8 °F /  9.9 °C 48.7 °F /  9.3 °C 29.6in /  1003.0hPa Calm     96% 0in /  0.0mm 0 W/m2
23:25 49.8 °F /  9.9 °C 48.7 °F /  9.3 °C 29.6in /  1003.0hPa Calm     96% 0in /  0.0mm 0 W/m2
23:30 49.8 °F /  9.9 °C 48.7 °F /  9.3 °C 29.6in /  1003.0hPa NE 0.9mph /  1.4km/h 3mph /  4.8km/h 96% 0in /  0.0mm 0 W/m2
23:35 49.8 °F /  9.9 °C 48.7 °F /  9.3 °C 29.6in /  1003.0hPa East 0.9mph /  1.4km/h 2mph /  3.2km/h 96% 0in /  0.0mm 0 W/m2
23:40 49.8 °F /  9.9 °C 48.7 °F /  9.3 °C 29.6in /  1002.7hPa East 0.9mph /  1.4km/h 1mph /  1.6km/h 96% 0in /  0.0mm 0 W/m2
23:45 49.8 °F /  9.9 °C 48.7 °F /  9.3 °C 29.6in /  1003.0hPa East 0.9mph /  1.4km/h 1mph /  1.6km/h 96% 0in /  0.0mm 0 W/m2
23:50 49.8 °F /  9.9 °C 48.7 °F /  9.3 °C 29.6in /  1003.0hPa Calm   1mph /  1.6km/h 96% 0in /  0.0mm 0 W/m2
23:55 49.8 °F /  9.9 °C 48.7 °F /  9.3 °C 29.6in /  1002.7hPa NE 0.9mph /  1.4km/h 2mph /  3.2km/h 96% 0in /  0.0mm 0 W/m2
Juneau County Weather
Compliments of Weather Underground - 4 mb